EGNS/IOM METAR and TAF weather

Enter ICAO airport designator
Station Type Date Time Source
EGNS METAR 2020/01/21 15:20 UTC NOAA

EGNS 211520Z 24006KT 220V280 9999 FEW010 09/08 Q1040 NOSIG


Station Type Date Time Source
EGNS Decoded METAR 2020/01/21 15:20 UTC NOAA

Isle Of Man / Ronaldsway Airport, United Kingdom (EGNS) 54-05N 004-38W 0M
Jan 21, 2020 - 10:20 AM EST / 2020.01.21 1520 UTC
Wind: from the WSW (240 degrees) at 7 MPH (6 KT) (direction variable):0
Visibility: greater than 7 mile(s):0
Sky conditions: mostly clear
Temperature: 48 F (9 C)
Dew Point: 46 F (8 C)
Relative Humidity: 93%
Pressure (altimeter): 30.71 in. Hg (1040 hPa)
ob: EGNS 211520Z 24006KT 220V280 9999 FEW010 09/08 Q1040 NOSIG
cycle: 15

Station Type Date Time Source
EGNS TAF 2019/01/16 05:00 UTC NOAA

TAF EGNS 160500 Z 1606/1615 28020KT 9999 FEW010 BKN025
TEMPO 1606/1609 6000 RA BKN010 PROB30
TEMPO 1613/1615 7000 -SHRA

Example: see airport list